Eldred, Pennsylvania
Current Conditions -  °F | °C
As of 11:24 PM on Tuesday 25 Nov 2014 (Local Time) from KBFD Reporting Station
Broken Clouds Broken Clouds  
Wind Chill: 22°   Ceiling: 2000
Heat Index: 30°   Visibility: 10mi
Dew Point: 21°   Wind: 8mph
Humidity: 69%   Direction: 290°WNW
Pressure: 30.11"   Gusts: NA
Location:  41.96°N, 78.39°W
Report Text: KBFD 260424Z AUTO 29007KT 10SM BKN020 M01/M06 A3011 RMK AO2 T10111061
Loading
Personal Weather Stations






























Interactive Weather Map New forecast layout! Learn more

10-Day Weather Forecast

Advertisements
Track Severe Weather on mobile